sensor_id;sensor_type;location;lat;lon;timestamp;P1;durP1;ratioP1;P2;durP2;ratioP2
52730;SDS011;38624;53.242;6.974;2022-07-23T00:00:05;4.50;;;2.50;;
52730;SDS011;38624;53.242;6.974;2022-07-23T00:02:32;8.02;;;2.40;;
52730;SDS011;38624;53.242;6.974;2022-07-23T00:04:58;3.47;;;2.27;;
52730;SDS011;38624;53.242;6.974;2022-07-23T00:07:24;6.23;;;2.73;;
52730;SDS011;38624;53.242;6.974;2022-07-23T00:09:50;5.77;;;2.50;;
52730;SDS011;38624;53.242;6.974;2022-07-23T00:12:15;6.53;;;2.43;;
52730;SDS011;38624;53.242;6.974;2022-07-23T00:14:41;6.20;;;2.47;;
52730;SDS011;38624;53.242;6.974;2022-07-23T00:17:07;11.37;;;2.33;;
52730;SDS011;38624;53.242;6.974;2022-07-23T00:19:33;5.30;;;2.63;;
52730;SDS011;38624;53.242;6.974;2022-07-23T00:21:58;8.80;;;2.30;;
52730;SDS011;38624;53.242;6.974;2022-07-23T00:24:24;5.80;;;2.50;;
52730;SDS011;38624;53.242;6.974;2022-07-23T00:26:50;5.23;;;2.20;;
52730;SDS011;38624;53.242;6.974;2022-07-23T00:29:15;4.97;;;2.30;;
52730;SDS011;38624;53.242;6.974;2022-07-23T00:31:41;6.07;;;2.40;;
52730;SDS011;38624;53.242;6.974;2022-07-23T00:34:07;5.27;;;2.77;;
52730;SDS011;38624;53.242;6.974;2022-07-23T00:36:33;6.27;;;2.97;;
52730;SDS011;38624;53.242;6.974;2022-07-23T00:38:58;8.17;;;3.17;;
52730;SDS011;38624;53.242;6.974;2022-07-23T00:41:24;5.80;;;3.03;;
52730;SDS011;38624;53.242;6.974;2022-07-23T00:43:50;6.27;;;3.17;;
52730;SDS011;38624;53.242;6.974;2022-07-23T00:46:22;7.60;;;3.80;;
52730;SDS011;38624;53.242;6.974;2022-07-23T00:48:50;9.68;;;3.80;;
52730;SDS011;38624;53.242;6.974;2022-07-23T00:51:15;5.17;;;3.33;;
52730;SDS011;38624;53.242;6.974;2022-07-23T00:53:42;7.00;;;3.45;;
52730;SDS011;38624;53.242;6.974;2022-07-23T00:56:09;5.45;;;3.83;;
52730;SDS011;38624;53.242;6.974;2022-07-23T00:58:35;7.75;;;4.10;;
52730;SDS011;38624;53.242;6.974;2022-07-23T01:01:01;6.18;;;3.92;;
52730;SDS011;38624;53.242;6.974;2022-07-23T01:03:27;8.53;;;4.10;;
52730;SDS011;38624;53.242;6.974;2022-07-23T01:05:53;9.33;;;4.33;;
52730;SDS011;38624;53.242;6.974;2022-07-23T01:08:19;7.67;;;4.60;;
52730;SDS011;38624;53.242;6.974;2022-07-23T01:10:45;6.93;;;4.35;;
52730;SDS011;38624;53.242;6.974;2022-07-23T01:13:13;5.70;;;4.32;;
52730;SDS011;38624;53.242;6.974;2022-07-23T01:15:39;6.93;;;4.47;;
52730;SDS011;38624;53.242;6.974;2022-07-23T01:18:05;7.97;;;4.30;;
52730;SDS011;38624;53.242;6.974;2022-07-23T01:20:32;7.97;;;4.85;;
52730;SDS011;38624;53.242;6.974;2022-07-23T01:23:00;8.15;;;4.68;;
52730;SDS011;38624;53.242;6.974;2022-07-23T01:25:26;9.37;;;4.70;;
52730;SDS011;38624;53.242;6.974;2022-07-23T01:27:52;8.17;;;4.97;;
52730;SDS011;38624;53.242;6.974;2022-07-23T01:30:19;6.97;;;4.45;;
52730;SDS011;38624;53.242;6.974;2022-07-23T01:32:45;9.07;;;4.53;;
52730;SDS011;38624;53.242;6.974;2022-07-23T01:35:11;10.03;;;4.40;;
52730;SDS011;38624;53.242;6.974;2022-07-23T01:37:37;8.55;;;5.13;;
52730;SDS011;38624;53.242;6.974;2022-07-23T01:40:03;10.50;;;4.97;;
52730;SDS011;38624;53.242;6.974;2022-07-23T01:44:55;9.80;;;4.57;;
52730;SDS011;38624;53.242;6.974;2022-07-23T01:47:21;10.18;;;5.07;;
52730;SDS011;38624;53.242;6.974;2022-07-23T01:49:47;8.80;;;4.60;;
52730;SDS011;38624;53.242;6.974;2022-07-23T01:52:13;7.13;;;5.00;;
52730;SDS011;38624;53.242;6.974;2022-07-23T01:54:39;6.77;;;4.80;;
52730;SDS011;38624;53.242;6.974;2022-07-23T01:57:05;11.43;;;4.53;;
52730;SDS011;38624;53.242;6.974;2022-07-23T01:59:31;8.15;;;4.72;;
52730;SDS011;38624;53.242;6.974;2022-07-23T02:01:57;6.63;;;4.80;;
52730;SDS011;38624;53.242;6.974;2022-07-23T02:04:24;10.60;;;5.27;;
52730;SDS011;38624;53.242;6.974;2022-07-23T02:09:16;7.05;;;4.70;;
52730;SDS011;38624;53.242;6.974;2022-07-23T02:11:41;8.33;;;4.67;;
52730;SDS011;38624;53.242;6.974;2022-07-23T02:14:08;7.55;;;5.50;;
52730;SDS011;38624;53.242;6.974;2022-07-23T02:16:33;9.50;;;5.33;;
52730;SDS011;38624;53.242;6.974;2022-07-23T02:18:59;6.23;;;4.60;;
52730;SDS011;38624;53.242;6.974;2022-07-23T02:21:25;10.20;;;4.97;;
52730;SDS011;38624;53.242;6.974;2022-07-23T02:23:51;8.60;;;4.97;;
52730;SDS011;38624;53.242;6.974;2022-07-23T02:26:16;10.60;;;5.43;;
52730;SDS011;38624;53.242;6.974;2022-07-23T02:28:42;10.33;;;5.30;;
52730;SDS011;38624;53.242;6.974;2022-07-23T02:31:08;10.93;;;5.17;;
52730;SDS011;38624;53.242;6.974;2022-07-23T02:33:34;9.40;;;5.30;;
52730;SDS011;38624;53.242;6.974;2022-07-23T02:36:00;8.35;;;5.00;;
52730;SDS011;38624;53.242;6.974;2022-07-23T02:38:26;9.93;;;5.00;;
52730;SDS011;38624;53.242;6.974;2022-07-23T02:40:51;9.77;;;4.97;;
52730;SDS011;38624;53.242;6.974;2022-07-23T02:43:17;9.27;;;5.23;;
52730;SDS011;38624;53.242;6.974;2022-07-23T02:45:43;9.57;;;5.50;;
52730;SDS011;38624;53.242;6.974;2022-07-23T02:48:09;10.33;;;5.97;;
52730;SDS011;38624;53.242;6.974;2022-07-23T02:50:37;8.20;;;5.30;;
52730;SDS011;38624;53.242;6.974;2022-07-23T02:53:03;10.37;;;5.47;;
52730;SDS011;38624;53.242;6.974;2022-07-23T02:55:29;8.40;;;4.90;;
52730;SDS011;38624;53.242;6.974;2022-07-23T02:57:56;8.32;;;5.15;;
52730;SDS011;38624;53.242;6.974;2022-07-23T03:00:22;7.73;;;4.87;;
52730;SDS011;38624;53.242;6.974;2022-07-23T03:02:48;10.98;;;5.32;;
52730;SDS011;38624;53.242;6.974;2022-07-23T03:05:13;11.63;;;5.77;;
52730;SDS011;38624;53.242;6.974;2022-07-23T03:07:39;10.40;;;5.70;;
52730;SDS011;38624;53.242;6.974;2022-07-23T03:10:05;9.17;;;5.70;;
52730;SDS011;38624;53.242;6.974;2022-07-23T03:12:31;9.57;;;5.00;;
52730;SDS011;38624;53.242;6.974;2022-07-23T03:14:57;10.67;;;5.93;;
52730;SDS011;38624;53.242;6.974;2022-07-23T03:17:23;9.17;;;4.73;;
52730;SDS011;38624;53.242;6.974;2022-07-23T03:19:48;9.80;;;4.63;;
52730;SDS011;38624;53.242;6.974;2022-07-23T03:22:14;9.23;;;5.27;;
52730;SDS011;38624;53.242;6.974;2022-07-23T03:24:40;6.07;;;4.30;;
52730;SDS011;38624;53.242;6.974;2022-07-23T03:27:24;9.23;;;4.82;;
52730;SDS011;38624;53.242;6.974;2022-07-23T03:29:51;6.28;;;4.70;;
52730;SDS011;38624;53.242;6.974;2022-07-23T03:32:18;9.65;;;4.70;;
52730;SDS011;38624;53.242;6.974;2022-07-23T03:34:44;8.10;;;4.85;;
52730;SDS011;38624;53.242;6.974;2022-07-23T03:37:10;8.13;;;4.50;;
52730;SDS011;38624;53.242;6.974;2022-07-23T03:39:36;8.97;;;4.93;;
52730;SDS011;38624;53.242;6.974;2022-07-23T03:42:02;7.77;;;3.97;;
52730;SDS011;38624;53.242;6.974;2022-07-23T03:44:27;7.65;;;4.47;;
52730;SDS011;38624;53.242;6.974;2022-07-23T03:46:53;9.67;;;4.20;;
52730;SDS011;38624;53.242;6.974;2022-07-23T03:49:19;7.75;;;4.20;;
52730;SDS011;38624;53.242;6.974;2022-07-23T03:51:45;8.33;;;4.03;;
52730;SDS011;38624;53.242;6.974;2022-07-23T03:54:11;9.33;;;4.30;;
52730;SDS011;38624;53.242;6.974;2022-07-23T03:56:39;9.25;;;4.32;;
52730;SDS011;38624;53.242;6.974;2022-07-23T03:59:05;9.40;;;4.60;;
52730;SDS011;38624;53.242;6.974;2022-07-23T04:01:31;6.40;;;3.90;;
52730;SDS011;38624;53.242;6.974;2022-07-23T04:03:56;11.17;;;4.57;;
52730;SDS011;38624;53.242;6.974;2022-07-23T04:06:22;6.07;;;3.93;;
52730;SDS011;38624;53.242;6.974;2022-07-23T04:08:48;10.60;;;4.63;;
52730;SDS011;38624;53.242;6.974;2022-07-23T04:11:14;4.53;;;3.40;;
52730;SDS011;38624;53.242;6.974;2022-07-23T04:13:39;8.17;;;4.03;;
52730;SDS011;38624;53.242;6.974;2022-07-23T04:16:05;8.20;;;4.73;;
52730;SDS011;38624;53.242;6.974;2022-07-23T04:18:31;8.57;;;4.33;;
52730;SDS011;38624;53.242;6.974;2022-07-23T04:20:57;9.23;;;4.40;;
52730;SDS011;38624;53.242;6.974;2022-07-23T04:23:23;8.37;;;4.60;;
52730;SDS011;38624;53.242;6.974;2022-07-23T04:25:48;9.83;;;4.33;;
52730;SDS011;38624;53.242;6.974;2022-07-23T04:28:14;6.07;;;3.97;;
52730;SDS011;38624;53.242;6.974;2022-07-23T04:30:40;9.17;;;4.83;;
52730;SDS011;38624;53.242;6.974;2022-07-23T04:33:05;8.87;;;4.47;;
52730;SDS011;38624;53.242;6.974;2022-07-23T04:35:32;9.83;;;4.63;;
52730;SDS011;38624;53.242;6.974;2022-07-23T04:37:58;6.50;;;4.20;;
52730;SDS011;38624;53.242;6.974;2022-07-23T04:40:24;9.07;;;4.27;;
52730;SDS011;38624;53.242;6.974;2022-07-23T04:42:51;9.57;;;4.68;;
52730;SDS011;38624;53.242;6.974;2022-07-23T04:45:17;7.90;;;4.40;;
52730;SDS011;38624;53.242;6.974;2022-07-23T04:47:42;9.70;;;4.73;;
52730;SDS011;38624;53.242;6.974;2022-07-23T04:50:08;9.13;;;4.70;;
52730;SDS011;38624;53.242;6.974;2022-07-23T04:52:34;7.73;;;4.40;;
52730;SDS011;38624;53.242;6.974;2022-07-23T04:55:00;8.60;;;4.37;;
52730;SDS011;38624;53.242;6.974;2022-07-23T04:57:25;8.73;;;4.83;;
52730;SDS011;38624;53.242;6.974;2022-07-23T04:59:51;8.63;;;4.77;;
52730;SDS011;38624;53.242;6.974;2022-07-23T05:02:17;8.77;;;4.50;;
52730;SDS011;38624;53.242;6.974;2022-07-23T05:04:42;9.13;;;4.40;;
52730;SDS011;38624;53.242;6.974;2022-07-23T05:07:08;6.97;;;4.33;;
52730;SDS011;38624;53.242;6.974;2022-07-23T05:09:34;6.73;;;4.60;;
52730;SDS011;38624;53.242;6.974;2022-07-23T05:12:00;8.27;;;4.33;;
52730;SDS011;38624;53.242;6.974;2022-07-23T05:14:28;12.07;;;4.93;;
52730;SDS011;38624;53.242;6.974;2022-07-23T05:16:54;10.35;;;4.28;;
52730;SDS011;38624;53.242;6.974;2022-07-23T05:19:20;9.32;;;4.32;;
52730;SDS011;38624;53.242;6.974;2022-07-23T05:21:46;7.63;;;4.37;;
52730;SDS011;38624;53.242;6.974;2022-07-23T05:24:11;7.23;;;4.00;;
52730;SDS011;38624;53.242;6.974;2022-07-23T05:26:37;9.53;;;3.90;;
52730;SDS011;38624;53.242;6.974;2022-07-23T05:29:03;7.57;;;3.90;;
52730;SDS011;38624;53.242;6.974;2022-07-23T05:31:28;5.83;;;3.93;;
52730;SDS011;38624;53.242;6.974;2022-07-23T05:33:54;6.10;;;4.00;;
52730;SDS011;38624;53.242;6.974;2022-07-23T05:36:20;7.77;;;4.30;;
52730;SDS011;38624;53.242;6.974;2022-07-23T05:38:45;6.80;;;3.83;;
52730;SDS011;38624;53.242;6.974;2022-07-23T05:41:11;8.07;;;4.13;;
52730;SDS011;38624;53.242;6.974;2022-07-23T05:43:37;6.57;;;3.77;;
52730;SDS011;38624;53.242;6.974;2022-07-23T05:46:02;8.70;;;4.53;;
52730;SDS011;38624;53.242;6.974;2022-07-23T05:48:28;11.73;;;4.63;;
52730;SDS011;38624;53.242;6.974;2022-07-23T05:50:54;6.57;;;4.00;;
52730;SDS011;38624;53.242;6.974;2022-07-23T05:53:19;5.93;;;3.83;;
52730;SDS011;38624;53.242;6.974;2022-07-23T05:55:45;5.47;;;3.97;;
52730;SDS011;38624;53.242;6.974;2022-07-23T05:58:11;5.73;;;3.87;;
52730;SDS011;38624;53.242;6.974;2022-07-23T06:00:37;5.80;;;4.40;;
52730;SDS011;38624;53.242;6.974;2022-07-23T06:03:02;8.00;;;4.57;;
52730;SDS011;38624;53.242;6.974;2022-07-23T06:05:28;8.37;;;4.37;;
52730;SDS011;38624;53.242;6.974;2022-07-23T06:07:54;5.73;;;3.90;;
52730;SDS011;38624;53.242;6.974;2022-07-23T06:10:19;8.00;;;3.40;;
52730;SDS011;38624;53.242;6.974;2022-07-23T06:12:46;6.00;;;4.10;;
52730;SDS011;38624;53.242;6.974;2022-07-23T06:15:12;5.88;;;3.90;;
52730;SDS011;38624;53.242;6.974;2022-07-23T06:17:38;8.77;;;3.90;;
52730;SDS011;38624;53.242;6.974;2022-07-23T06:20:05;6.30;;;3.90;;
52730;SDS011;38624;53.242;6.974;2022-07-23T06:22:35;8.38;;;4.15;;
52730;SDS011;38624;53.242;6.974;2022-07-23T06:25:01;8.43;;;3.83;;
52730;SDS011;38624;53.242;6.974;2022-07-23T06:27:27;5.70;;;3.43;;
52730;SDS011;38624;53.242;6.974;2022-07-23T06:29:52;4.50;;;3.30;;
52730;SDS011;38624;53.242;6.974;2022-07-23T06:32:18;5.57;;;3.33;;
52730;SDS011;38624;53.242;6.974;2022-07-23T06:34:44;5.90;;;3.30;;
52730;SDS011;38624;53.242;6.974;2022-07-23T06:37:10;6.23;;;3.23;;
52730;SDS011;38624;53.242;6.974;2022-07-23T06:39:35;4.90;;;2.90;;
52730;SDS011;38624;53.242;6.974;2022-07-23T06:42:01;4.53;;;2.80;;
52730;SDS011;38624;53.242;6.974;2022-07-23T06:44:27;5.47;;;2.70;;
52730;SDS011;38624;53.242;6.974;2022-07-23T06:46:52;7.47;;;2.90;;
52730;SDS011;38624;53.242;6.974;2022-07-23T06:49:18;7.07;;;2.30;;
52730;SDS011;38624;53.242;6.974;2022-07-23T06:51:44;3.83;;;2.20;;
52730;SDS011;38624;53.242;6.974;2022-07-23T06:54:10;3.90;;;2.17;;
52730;SDS011;38624;53.242;6.974;2022-07-23T06:56:36;4.27;;;2.07;;
52730;SDS011;38624;53.242;6.974;2022-07-23T06:59:01;3.27;;;1.90;;
52730;SDS011;38624;53.242;6.974;2022-07-23T07:01:28;3.70;;;2.05;;
52730;SDS011;38624;53.242;6.974;2022-07-23T07:03:53;4.80;;;1.80;;
52730;SDS011;38624;53.242;6.974;2022-07-23T07:06:19;2.33;;;1.50;;
52730;SDS011;38624;53.242;6.974;2022-07-23T07:08:45;2.87;;;1.43;;
52730;SDS011;38624;53.242;6.974;2022-07-23T07:11:11;4.43;;;1.20;;
52730;SDS011;38624;53.242;6.974;2022-07-23T07:13:37;2.40;;;1.20;;
52730;SDS011;38624;53.242;6.974;2022-07-23T07:16:03;3.40;;;1.02;;
52730;SDS011;38624;53.242;6.974;2022-07-23T07:18:29;2.00;;;0.90;;
52730;SDS011;38624;53.242;6.974;2022-07-23T07:20:56;5.40;;;1.30;;
52730;SDS011;38624;53.242;6.974;2022-07-23T07:23:22;2.55;;;1.20;;
52730;SDS011;38624;53.242;6.974;2022-07-23T07:25:48;1.85;;;0.90;;
52730;SDS011;38624;53.242;6.974;2022-07-23T07:28:14;3.47;;;1.07;;
52730;SDS011;38624;53.242;6.974;2022-07-23T07:30:40;3.07;;;1.07;;
52730;SDS011;38624;53.242;6.974;2022-07-23T07:33:06;5.20;;;1.20;;
52730;SDS011;38624;53.242;6.974;2022-07-23T07:35:32;2.57;;;1.10;;
52730;SDS011;38624;53.242;6.974;2022-07-23T07:38:01;3.23;;;1.20;;
52730;SDS011;38624;53.242;6.974;2022-07-23T07:40:27;3.20;;;1.10;;
52730;SDS011;38624;53.242;6.974;2022-07-23T07:42:53;1.70;;;0.90;;
52730;SDS011;38624;53.242;6.974;2022-07-23T07:45:20;3.95;;;1.05;;
52730;SDS011;38624;53.242;6.974;2022-07-23T07:50:12;2.65;;;1.55;;
52730;SDS011;38624;53.242;6.974;2022-07-23T07:52:38;2.47;;;1.30;;
52730;SDS011;38624;53.242;6.974;2022-07-23T07:55:04;2.33;;;1.10;;
52730;SDS011;38624;53.242;6.974;2022-07-23T07:57:32;3.40;;;1.30;;
52730;SDS011;38624;53.242;6.974;2022-07-23T07:59:58;2.00;;;1.13;;
52730;SDS011;38624;53.242;6.974;2022-07-23T08:02:24;4.50;;;1.57;;
52730;SDS011;38624;53.242;6.974;2022-07-23T08:04:50;3.70;;;1.65;;
52730;SDS011;38624;53.242;6.974;2022-07-23T08:07:15;3.97;;;1.60;;
52730;SDS011;38624;53.242;6.974;2022-07-23T08:09:41;3.23;;;0.87;;
52730;SDS011;38624;53.242;6.974;2022-07-23T08:12:07;2.43;;;1.13;;
52730;SDS011;38624;53.242;6.974;2022-07-23T08:14:33;1.77;;;1.00;;
52730;SDS011;38624;53.242;6.974;2022-07-23T08:16:59;3.90;;;1.10;;
52730;SDS011;38624;53.242;6.974;2022-07-23T08:19:24;2.20;;;0.80;;
52730;SDS011;38624;53.242;6.974;2022-07-23T08:21:50;3.07;;;0.80;;
52730;SDS011;38624;53.242;6.974;2022-07-23T08:24:16;3.57;;;0.90;;
52730;SDS011;38624;53.242;6.974;2022-07-23T08:26:42;2.93;;;0.90;;
52730;SDS011;38624;53.242;6.974;2022-07-23T08:29:08;3.60;;;0.80;;
52730;SDS011;38624;53.242;6.974;2022-07-23T08:34:00;2.15;;;0.90;;
52730;SDS011;38624;53.242;6.974;2022-07-23T08:36:27;3.97;;;0.65;;
52730;SDS011;38624;53.242;6.974;2022-07-23T08:38:56;2.83;;;1.00;;
52730;SDS011;38624;53.242;6.974;2022-07-23T08:41:22;3.95;;;0.82;;
52730;SDS011;38624;53.242;6.974;2022-07-23T08:43:48;2.83;;;0.77;;
52730;SDS011;38624;53.242;6.974;2022-07-23T08:46:14;1.70;;;0.70;;
52730;SDS011;38624;53.242;6.974;2022-07-23T08:48:44;3.40;;;1.08;;
52730;SDS011;38624;53.242;6.974;2022-07-23T08:51:13;2.28;;;0.80;;
52730;SDS011;38624;53.242;6.974;2022-07-23T08:53:39;2.28;;;0.77;;
52730;SDS011;38624;53.242;6.974;2022-07-23T08:56:07;1.80;;;0.85;;
52730;SDS011;38624;53.242;6.974;2022-07-23T08:58:33;3.15;;;1.00;;
52730;SDS011;38624;53.242;6.974;2022-07-23T09:00:59;2.77;;;0.87;;
52730;SDS011;38624;53.242;6.974;2022-07-23T09:03:33;1.63;;;0.70;;
52730;SDS011;38624;53.242;6.974;2022-07-23T09:06:00;1.70;;;0.80;;
52730;SDS011;38624;53.242;6.974;2022-07-23T09:11:08;1.67;;;0.60;;
52730;SDS011;38624;53.242;6.974;2022-07-23T09:13:40;1.48;;;0.75;;
52730;SDS011;38624;53.242;6.974;2022-07-23T09:16:17;5.35;;;0.80;;
52730;SDS011;38624;53.242;6.974;2022-07-23T09:21:16;2.65;;;0.70;;
52730;SDS011;38624;53.242;6.974;2022-07-23T09:23:59;1.45;;;0.70;;
52730;SDS011;38624;53.242;6.974;2022-07-23T09:26:38;2.78;;;0.70;;
52730;SDS011;38624;53.242;6.974;2022-07-23T09:29:20;3.15;;;0.80;;
52730;SDS011;38624;53.242;6.974;2022-07-23T09:32:00;0.63;;;0.63;;
52730;SDS011;38624;53.242;6.974;2022-07-23T09:34:33;1.15;;;0.60;;
52730;SDS011;38624;53.242;6.974;2022-07-23T09:37:19;2.75;;;0.70;;
52730;SDS011;38624;53.242;6.974;2022-07-23T09:39:45;2.47;;;0.70;;
52730;SDS011;38624;53.242;6.974;2022-07-23T09:44:42;2.58;;;0.70;;
52730;SDS011;38624;53.242;6.974;2022-07-23T09:47:19;1.92;;;0.70;;
52730;SDS011;38624;53.242;6.974;2022-07-23T09:52:35;1.70;;;0.70;;
52730;SDS011;38624;53.242;6.974;2022-07-23T09:55:07;2.85;;;0.98;;
52730;SDS011;38624;53.242;6.974;2022-07-23T09:57:34;2.00;;;0.70;;
52730;SDS011;38624;53.242;6.974;2022-07-23T10:00:06;3.17;;;0.70;;
52730;SDS011;38624;53.242;6.974;2022-07-23T10:02:34;2.05;;;0.70;;
52730;SDS011;38624;53.242;6.974;2022-07-23T10:05:02;2.80;;;0.80;;
52730;SDS011;38624;53.242;6.974;2022-07-23T10:09:56;2.95;;;0.65;;
52730;SDS011;38624;53.242;6.974;2022-07-23T10:12:23;2.45;;;0.70;;
52730;SDS011;38624;53.242;6.974;2022-07-23T10:14:50;1.20;;;0.60;;
52730;SDS011;38624;53.242;6.974;2022-07-23T10:17:17;1.25;;;0.70;;
52730;SDS011;38624;53.242;6.974;2022-07-23T10:19:43;1.27;;;0.70;;
52730;SDS011;38624;53.242;6.974;2022-07-23T10:24:47;2.88;;;1.08;;
52730;SDS011;38624;53.242;6.974;2022-07-23T10:31:06;1.88;;;1.00;;
52730;SDS011;38624;53.242;6.974;2022-07-23T10:33:32;1.98;;;0.80;;
52730;SDS011;38624;53.242;6.974;2022-07-23T10:36:23;2.33;;;0.70;;
52730;SDS011;38624;53.242;6.974;2022-07-23T10:39:05;3.85;;;0.98;;
52730;SDS011;38624;53.242;6.974;2022-07-23T10:41:33;2.22;;;0.82;;
52730;SDS011;38624;53.242;6.974;2022-07-23T10:44:09;1.50;;;0.80;;
52730;SDS011;38624;53.242;6.974;2022-07-23T10:49:32;2.45;;;0.80;;
52730;SDS011;38624;53.242;6.974;2022-07-23T10:57:16;1.80;;;0.70;;
52730;SDS011;38624;53.242;6.974;2022-07-23T11:00:50;1.98;;;0.90;;
52730;SDS011;38624;53.242;6.974;2022-07-23T11:02:52;1.90;;;0.80;;
52730;SDS011;38624;53.242;6.974;2022-07-23T11:05:20;2.35;;;0.70;;
52730;SDS011;38624;53.242;6.974;2022-07-23T11:10:35;4.13;;;1.10;;
52730;SDS011;38624;53.242;6.974;2022-07-23T11:31:54;2.60;;;0.80;;
52730;SDS011;38624;53.242;6.974;2022-07-23T11:37:00;1.73;;;0.80;;
52730;SDS011;38624;53.242;6.974;2022-07-23T11:39:28;1.95;;;0.70;;
52730;SDS011;38624;53.242;6.974;2022-07-23T11:41:56;2.15;;;0.82;;
52730;SDS011;38624;53.242;6.974;2022-07-23T11:44:30;2.17;;;1.05;;
52730;SDS011;38624;53.242;6.974;2022-07-23T11:46:58;2.45;;;0.85;;
52730;SDS011;38624;53.242;6.974;2022-07-23T11:49:25;3.13;;;0.73;;
52730;SDS011;38624;53.242;6.974;2022-07-23T11:52:08;2.97;;;0.90;;
52730;SDS011;38624;53.242;6.974;2022-07-23T11:57:18;2.75;;;0.90;;
52730;SDS011;38624;53.242;6.974;2022-07-23T11:59:50;2.40;;;0.95;;
52730;SDS011;38624;53.242;6.974;2022-07-23T12:02:19;1.77;;;0.90;;
52730;SDS011;38624;53.242;6.974;2022-07-23T12:04:46;3.45;;;0.98;;
52730;SDS011;38624;53.242;6.974;2022-07-23T12:09:59;2.58;;;1.17;;
52730;SDS011;38624;53.242;6.974;2022-07-23T12:12:43;3.58;;;1.00;;
52730;SDS011;38624;53.242;6.974;2022-07-23T12:15:12;1.60;;;0.90;;
52730;SDS011;38624;53.242;6.974;2022-07-23T12:17:41;3.75;;;0.90;;
52730;SDS011;38624;53.242;6.974;2022-07-23T12:20:11;6.80;;;1.40;;
52730;SDS011;38624;53.242;6.974;2022-07-23T12:22:40;2.10;;;1.00;;
52730;SDS011;38624;53.242;6.974;2022-07-23T12:25:18;2.22;;;0.90;;
52730;SDS011;38624;53.242;6.974;2022-07-23T12:27:46;1.88;;;0.98;;
52730;SDS011;38624;53.242;6.974;2022-07-23T12:32:50;2.35;;;1.02;;
52730;SDS011;38624;53.242;6.974;2022-07-23T12:35:19;2.63;;;1.15;;
52730;SDS011;38624;53.242;6.974;2022-07-23T12:37:47;2.22;;;1.00;;
52730;SDS011;38624;53.242;6.974;2022-07-23T12:40:18;1.90;;;1.08;;
52730;SDS011;38624;53.242;6.974;2022-07-23T12:42:45;5.60;;;1.38;;
52730;SDS011;38624;53.242;6.974;2022-07-23T12:45:15;2.38;;;1.20;;
52730;SDS011;38624;53.242;6.974;2022-07-23T12:47:57;2.28;;;0.90;;
52730;SDS011;38624;53.242;6.974;2022-07-23T12:53:32;4.00;;;1.00;;
52730;SDS011;38624;53.242;6.974;2022-07-23T12:56:08;5.28;;;1.23;;
52730;SDS011;38624;53.242;6.974;2022-07-23T12:58:43;4.10;;;0.98;;
52730;SDS011;38624;53.242;6.974;2022-07-23T13:01:21;2.85;;;1.15;;
52730;SDS011;38624;53.242;6.974;2022-07-23T13:06:45;3.75;;;1.10;;
52730;SDS011;38624;53.242;6.974;2022-07-23T13:09:18;4.03;;;1.10;;
52730;SDS011;38624;53.242;6.974;2022-07-23T13:11:53;3.22;;;1.00;;
52730;SDS011;38624;53.242;6.974;2022-07-23T13:14:20;2.28;;;0.90;;
52730;SDS011;38624;53.242;6.974;2022-07-23T13:16:47;2.10;;;1.05;;
52730;SDS011;38624;53.242;6.974;2022-07-23T13:19:14;3.00;;;1.00;;
52730;SDS011;38624;53.242;6.974;2022-07-23T13:21:40;2.97;;;1.08;;
52730;SDS011;38624;53.242;6.974;2022-07-23T13:24:07;2.33;;;0.93;;
52730;SDS011;38624;53.242;6.974;2022-07-23T13:26:33;2.47;;;1.00;;
52730;SDS011;38624;53.242;6.974;2022-07-23T13:28:59;3.13;;;0.90;;
52730;SDS011;38624;53.242;6.974;2022-07-23T13:31:25;1.88;;;1.00;;
52730;SDS011;38624;53.242;6.974;2022-07-23T13:33:51;3.73;;;1.10;;
52730;SDS011;38624;53.242;6.974;2022-07-23T13:36:16;1.60;;;0.80;;
52730;SDS011;38624;53.242;6.974;2022-07-23T13:38:42;2.08;;;0.90;;
52730;SDS011;38624;53.242;6.974;2022-07-23T13:41:08;2.03;;;1.10;;
52730;SDS011;38624;53.242;6.974;2022-07-23T13:43:35;3.75;;;1.10;;
52730;SDS011;38624;53.242;6.974;2022-07-23T13:46:01;2.67;;;1.00;;
52730;SDS011;38624;53.242;6.974;2022-07-23T13:48:27;2.35;;;1.00;;
52730;SDS011;38624;53.242;6.974;2022-07-23T13:50:54;2.70;;;1.10;;
52730;SDS011;38624;53.242;6.974;2022-07-23T13:53:21;1.88;;;1.00;;
52730;SDS011;38624;53.242;6.974;2022-07-23T13:55:48;3.38;;;1.02;;
52730;SDS011;38624;53.242;6.974;2022-07-23T13:58:16;5.72;;;1.23;;
52730;SDS011;38624;53.242;6.974;2022-07-23T14:00:43;3.17;;;1.52;;
52730;SDS011;38624;53.242;6.974;2022-07-23T14:03:11;2.20;;;1.08;;
52730;SDS011;38624;53.242;6.974;2022-07-23T14:05:37;2.83;;;1.20;;
52730;SDS011;38624;53.242;6.974;2022-07-23T14:08:03;4.70;;;1.23;;
52730;SDS011;38624;53.242;6.974;2022-07-23T14:10:29;2.53;;;1.10;;
52730;SDS011;38624;53.242;6.974;2022-07-23T14:12:55;2.33;;;0.90;;
52730;SDS011;38624;53.242;6.974;2022-07-23T14:15:23;2.72;;;0.90;;
52730;SDS011;38624;53.242;6.974;2022-07-23T14:17:52;2.20;;;0.90;;
52730;SDS011;38624;53.242;6.974;2022-07-23T14:20:18;4.28;;;2.35;;
52730;SDS011;38624;53.242;6.974;2022-07-23T14:22:44;3.00;;;0.80;;
52730;SDS011;38624;53.242;6.974;2022-07-23T14:25:10;4.30;;;1.00;;
52730;SDS011;38624;53.242;6.974;2022-07-23T14:27:37;1.33;;;0.70;;
52730;SDS011;38624;53.242;6.974;2022-07-23T14:30:04;4.10;;;1.20;;
52730;SDS011;38624;53.242;6.974;2022-07-23T14:32:31;2.50;;;0.90;;
52730;SDS011;38624;53.242;6.974;2022-07-23T14:34:57;1.70;;;0.90;;
52730;SDS011;38624;53.242;6.974;2022-07-23T14:37:22;2.85;;;1.00;;
52730;SDS011;38624;53.242;6.974;2022-07-23T14:39:49;5.93;;;1.20;;
52730;SDS011;38624;53.242;6.974;2022-07-23T14:42:16;2.17;;;1.02;;
52730;SDS011;38624;53.242;6.974;2022-07-23T14:44:42;2.25;;;0.90;;
52730;SDS011;38624;53.242;6.974;2022-07-23T14:47:08;2.72;;;0.90;;
52730;SDS011;38624;53.242;6.974;2022-07-23T14:49:34;2.20;;;0.88;;
52730;SDS011;38624;53.242;6.974;2022-07-23T14:52:00;4.18;;;1.00;;
52730;SDS011;38624;53.242;6.974;2022-07-23T14:54:26;2.25;;;1.00;;
52730;SDS011;38624;53.242;6.974;2022-07-23T14:56:57;3.03;;;1.40;;
52730;SDS011;38624;53.242;6.974;2022-07-23T14:59:23;3.00;;;0.98;;
52730;SDS011;38624;53.242;6.974;2022-07-23T15:04:15;1.70;;;0.82;;
52730;SDS011;38624;53.242;6.974;2022-07-23T15:06:41;1.65;;;0.88;;
52730;SDS011;38624;53.242;6.974;2022-07-23T15:09:07;2.13;;;0.80;;
52730;SDS011;38624;53.242;6.974;2022-07-23T15:11:33;3.65;;;0.85;;
52730;SDS011;38624;53.242;6.974;2022-07-23T15:14:01;3.33;;;0.93;;
52730;SDS011;38624;53.242;6.974;2022-07-23T15:16:29;1.33;;;0.80;;
52730;SDS011;38624;53.242;6.974;2022-07-23T15:18:55;1.85;;;0.70;;
52730;SDS011;38624;53.242;6.974;2022-07-23T15:21:21;4.28;;;1.10;;
52730;SDS011;38624;53.242;6.974;2022-07-23T15:23:46;1.85;;;0.90;;
52730;SDS011;38624;53.242;6.974;2022-07-23T15:26:12;5.38;;;1.05;;
52730;SDS011;38624;53.242;6.974;2022-07-23T15:28:40;3.42;;;1.00;;
52730;SDS011;38624;53.242;6.974;2022-07-23T15:31:06;2.15;;;0.90;;
52730;SDS011;38624;53.242;6.974;2022-07-23T15:33:32;2.75;;;1.00;;
52730;SDS011;38624;53.242;6.974;2022-07-23T15:35:58;4.93;;;1.00;;
52730;SDS011;38624;53.242;6.974;2022-07-23T15:38:24;1.50;;;0.90;;
52730;SDS011;38624;53.242;6.974;2022-07-23T15:40:51;2.40;;;1.05;;
52730;SDS011;38624;53.242;6.974;2022-07-23T15:43:18;3.00;;;1.00;;
52730;SDS011;38624;53.242;6.974;2022-07-23T15:45:44;1.58;;;0.88;;
52730;SDS011;38624;53.242;6.974;2022-07-23T15:48:09;3.00;;;0.88;;
52730;SDS011;38624;53.242;6.974;2022-07-23T15:50:35;2.53;;;1.10;;
52730;SDS011;38624;53.242;6.974;2022-07-23T15:53:01;3.65;;;0.98;;
52730;SDS011;38624;53.242;6.974;2022-07-23T15:55:27;2.47;;;0.80;;
52730;SDS011;38624;53.242;6.974;2022-07-23T15:57:52;3.03;;;1.00;;
52730;SDS011;38624;53.242;6.974;2022-07-23T16:00:18;3.17;;;1.00;;
52730;SDS011;38624;53.242;6.974;2022-07-23T16:02:44;1.65;;;0.90;;
52730;SDS011;38624;53.242;6.974;2022-07-23T16:05:09;3.60;;;0.77;;